createdAt,value
2023-03-19T00:02:22.468Z,71.32
2023-03-19T00:04:54.902Z,71.32
2023-03-19T00:07:28.608Z,71.04
2023-03-19T00:10:00.840Z,70.88
2023-03-19T00:12:31.552Z,70.89
2023-03-19T00:15:04.561Z,71.32
2023-03-19T00:17:40.792Z,71.26
2023-03-19T00:20:15.864Z,70.68
2023-03-19T00:22:51.189Z,70.44
2023-03-19T00:25:21.739Z,70.35
2023-03-19T00:27:57.421Z,69.84
2023-03-19T00:30:28.095Z,69.35
2023-03-19T00:32:58.662Z,69.77
2023-03-19T00:35:29.345Z,69.20
2023-03-19T00:37:59.996Z,68.80
2023-03-19T00:40:30.618Z,68.77
2023-03-19T00:43:02.750Z,68.85
2023-03-19T00:45:33.861Z,69.25
2023-03-19T00:48:04.899Z,69.41
2023-03-19T00:50:35.837Z,69.16
2023-03-19T00:53:08.105Z,69.31
2023-03-19T00:55:38.713Z,68.90
2023-03-19T00:58:10.196Z,69.20
2023-03-19T01:00:43.788Z,68.68
2023-03-19T01:03:15.511Z,69.24
2023-03-19T01:05:51.126Z,69.19
2023-03-19T01:08:23.291Z,69.29
2023-03-19T01:10:54.232Z,69.36
2023-03-19T01:13:24.863Z,69.12
2023-03-19T01:15:55.518Z,69.01
2023-03-19T01:18:26.395Z,69.23
2023-03-19T01:21:00.338Z,69.00
2023-03-19T01:23:34.015Z,68.73
2023-03-19T01:26:06.282Z,68.74
2023-03-19T01:28:39.650Z,68.62
2023-03-19T01:31:12.771Z,68.87
2023-03-19T01:33:45.099Z,68.86
2023-03-19T01:36:16.217Z,68.72
2023-03-19T01:38:46.874Z,68.33
2023-03-19T01:41:17.451Z,68.12
2023-03-19T01:43:49.288Z,68.40
2023-03-19T01:46:33.769Z,67.86
2023-03-19T01:49:07.389Z,67.84
2023-03-19T01:51:45.819Z,67.89
2023-03-19T01:54:21.557Z,67.91
2023-03-19T01:56:57.340Z,67.86
2023-03-19T01:59:36.681Z,68.06
2023-03-19T02:02:20.844Z,67.59
2023-03-19T02:04:56.959Z,67.45
2023-03-19T02:07:30.077Z,67.55
2023-03-19T02:10:04.167Z,67.79
2023-03-19T02:12:38.182Z,67.70
2023-03-19T02:15:10.237Z,67.89
2023-03-19T02:17:48.675Z,67.97
2023-03-19T02:20:22.268Z,68.07
2023-03-19T02:23:22.781Z,67.95
2023-03-19T02:25:59.919Z,67.91
2023-03-19T02:28:36.710Z,68.18
2023-03-19T02:31:10.304Z,67.98
2023-03-19T02:33:41.894Z,67.55
2023-03-19T02:36:18.309Z,66.79
2023-03-19T02:38:50.902Z,67.20
2023-03-19T02:41:30.101Z,66.75
2023-03-19T02:44:03.494Z,66.60
2023-03-19T02:46:34.414Z,66.64
2023-03-19T02:49:06.639Z,66.35
2023-03-19T02:51:39.500Z,66.37
2023-03-19T02:54:16.270Z,66.26
2023-03-19T02:56:48.699Z,65.98
2023-03-19T02:59:21.461Z,66.20
2023-03-19T03:01:56.094Z,66.46
2023-03-19T03:04:29.753Z,66.46
2023-03-19T03:07:03.528Z,66.88
2023-03-19T03:09:34.127Z,66.86
2023-03-19T03:12:05.326Z,66.64
2023-03-19T03:14:36.988Z,67.06
2023-03-19T03:17:10.114Z,67.30
2023-03-19T03:19:42.684Z,67.31
2023-03-19T03:22:13.169Z,67.45
2023-03-19T03:24:44.519Z,67.79
2023-03-19T03:27:17.123Z,67.50
2023-03-19T03:29:49.176Z,67.72
2023-03-19T03:32:23.222Z,67.43
2023-03-19T03:34:55.855Z,67.24
2023-03-19T03:37:26.671Z,66.68
2023-03-19T03:39:57.951Z,66.18
2023-03-19T03:42:33.188Z,65.85
2023-03-19T03:45:04.968Z,65.88
2023-03-19T03:47:39.142Z,66.13
2023-03-19T03:50:14.962Z,66.66
2023-03-19T03:52:45.510Z,66.73
2023-03-19T03:55:18.646Z,66.75
2023-03-19T03:57:52.061Z,66.70
2023-03-19T04:00:26.932Z,66.62
2023-03-19T04:02:59.789Z,66.29
2023-03-19T04:05:32.822Z,66.42
2023-03-19T04:08:04.434Z,66.95
2023-03-19T04:10:38.191Z,66.59
2023-03-19T04:13:11.170Z,66.82
2023-03-19T04:15:45.692Z,66.38
2023-03-19T04:18:19.070Z,66.21
2023-03-19T04:20:52.691Z,65.89
2023-03-19T04:23:26.681Z,66.41
2023-03-19T04:26:03.114Z,66.53
2023-03-19T04:28:36.420Z,66.65
2023-03-19T04:31:12.364Z,66.57
2023-03-19T04:33:44.929Z,66.83
2023-03-19T04:36:19.503Z,67.02
2023-03-19T04:38:53.454Z,67.21
2023-03-19T04:41:27.417Z,68.15
2023-03-19T04:43:58.268Z,67.65
2023-03-19T04:46:32.692Z,68.14
2023-03-19T04:49:04.549Z,66.98
2023-03-19T04:51:39.884Z,67.72
2023-03-19T04:54:11.574Z,66.78
2023-03-19T04:56:43.525Z,68.15
2023-03-19T04:59:16.534Z,68.15
2023-03-19T05:01:47.980Z,69.04
2023-03-19T05:04:21.382Z,69.73
2023-03-19T05:06:54.695Z,69.93
2023-03-19T05:09:31.764Z,71.02
2023-03-19T05:12:06.618Z,71.85
2023-03-19T05:14:37.216Z,72.86
2023-03-19T05:17:10.831Z,75.08
2023-03-19T05:19:45.959Z,76.16
2023-03-19T05:22:18.009Z,77.58
2023-03-19T05:24:51.884Z,78.37
2023-03-19T05:27:26.814Z,79.76
2023-03-19T05:29:57.730Z,80.85
2023-03-19T05:32:30.598Z,80.86
2023-03-19T05:35:01.241Z,80.69
2023-03-19T05:37:35.306Z,81.39
2023-03-19T05:40:09.069Z,82.22
2023-03-19T05:42:39.726Z,83.55
2023-03-19T05:45:12.453Z,84.79
2023-03-19T05:47:44.058Z,85.65
2023-03-19T05:50:18.136Z,85.92
2023-03-19T05:52:48.621Z,86.05
2023-03-19T05:55:20.750Z,86.14
2023-03-19T05:57:55.041Z,86.19
2023-03-19T06:00:25.618Z,86.71
2023-03-19T06:02:57.628Z,86.28
2023-03-19T06:05:29.723Z,86.23
2023-03-19T06:08:01.421Z,85.89
2023-03-19T06:10:33.602Z,86.21
2023-03-19T06:13:06.060Z,86.14
2023-03-19T06:15:36.740Z,86.15
2023-03-19T06:18:08.264Z,86.29
2023-03-19T06:20:39.027Z,86.17
2023-03-19T06:23:10.861Z,85.60
2023-03-19T06:25:41.699Z,85.10
2023-03-19T06:28:12.610Z,85.11
2023-03-19T06:30:44.506Z,84.76
2023-03-19T06:33:16.542Z,84.29
2023-03-19T06:35:47.767Z,83.30
2023-03-19T06:38:18.195Z,84.36
2023-03-19T06:40:50.258Z,83.55
2023-03-19T06:43:21.862Z,83.17
2023-03-19T06:45:52.326Z,83.18
2023-03-19T06:48:23.534Z,82.01
2023-03-19T06:50:56.194Z,81.64
2023-03-19T06:53:27.077Z,81.91
2023-03-19T06:55:58.781Z,82.23
2023-03-19T06:58:32.714Z,83.36
2023-03-19T07:01:04.053Z,82.95
2023-03-19T07:03:34.664Z,83.36
2023-03-19T07:06:05.594Z,84.24
2023-03-19T07:08:36.332Z,84.03
2023-03-19T07:11:08.398Z,84.39
2023-03-19T07:13:39.366Z,84.95
2023-03-19T07:16:10.361Z,85.00
2023-03-19T07:18:41.046Z,85.41
2023-03-19T07:21:12.609Z,84.39
2023-03-19T07:23:43.368Z,84.42
2023-03-19T07:26:14.179Z,84.84
2023-03-19T07:28:45.658Z,85.45
2023-03-19T07:31:17.177Z,86.18
2023-03-19T07:33:49.339Z,86.72
2023-03-19T07:36:23.240Z,87.64
2023-03-19T07:38:54.125Z,88.08
2023-03-19T07:41:25.077Z,87.97
2023-03-19T07:43:57.443Z,88.44
2023-03-19T07:46:28.472Z,88.77
2023-03-19T07:49:00.130Z,88.68
2023-03-19T07:51:31.187Z,88.48
2023-03-19T07:54:04.741Z,88.53
2023-03-19T07:56:35.309Z,88.62
2023-03-19T07:59:08.831Z,88.96
2023-03-19T08:01:39.485Z,89.09
2023-03-19T08:04:09.909Z,88.67
2023-03-19T08:06:40.777Z,88.27
2023-03-19T08:09:12.415Z,88.37
2023-03-19T08:11:43.736Z,88.24
2023-03-19T08:14:14.240Z,88.49
2023-03-19T08:16:46.472Z,88.69
2023-03-19T08:19:19.421Z,88.58
2023-03-19T08:21:52.958Z,88.78
2023-03-19T08:24:24.813Z,88.34
2023-03-19T08:26:55.318Z,88.18
2023-03-19T08:29:27.716Z,87.96
2023-03-19T08:32:00.291Z,87.49
2023-03-19T08:34:33.851Z,87.19
2023-03-19T08:37:06.101Z,87.04
2023-03-19T08:39:38.681Z,86.90
2023-03-19T08:42:09.955Z,87.28
2023-03-19T08:44:41.314Z,87.40
2023-03-19T08:47:12.180Z,87.62
2023-03-19T08:49:44.554Z,87.69
2023-03-19T08:52:16.325Z,87.64
2023-03-19T08:54:48.577Z,87.88
2023-03-19T08:57:20.585Z,87.98
2023-03-19T08:59:54.351Z,88.11
2023-03-19T09:02:27.999Z,88.08
2023-03-19T09:04:59.373Z,88.26
2023-03-19T09:07:34.531Z,88.51
2023-03-19T09:10:09.422Z,88.54
2023-03-19T09:12:40.258Z,88.62
2023-03-19T09:15:11.755Z,88.71
2023-03-19T09:17:43.613Z,88.87
2023-03-19T09:20:15.898Z,88.49
2023-03-19T09:22:47.849Z,87.70
2023-03-19T09:25:23.264Z,87.69
2023-03-19T09:27:54.560Z,87.58
2023-03-19T09:30:25.341Z,87.65
2023-03-19T09:33:06.875Z,87.46
2023-03-19T09:35:38.668Z,87.82
2023-03-19T09:38:12.799Z,87.51
2023-03-19T09:40:46.547Z,86.97
2023-03-19T09:43:47.093Z,86.90
2023-03-19T09:46:25.965Z,86.60
2023-03-19T09:49:28.287Z,85.94
2023-03-19T09:52:20.742Z,85.26
2023-03-19T09:54:53.821Z,84.92
2023-03-19T09:57:25.683Z,84.29
2023-03-19T09:59:56.651Z,84.13
2023-03-19T10:02:44.013Z,84.11
2023-03-19T10:05:23.428Z,83.06
2023-03-19T10:07:57.804Z,83.47
2023-03-19T10:10:39.357Z,83.39
2023-03-19T10:13:42.021Z,83.41
2023-03-19T10:16:17.378Z,84.31
2023-03-19T10:18:54.889Z,84.28
2023-03-19T10:21:35.570Z,84.25
2023-03-19T10:24:26.133Z,83.70
2023-03-19T10:27:03.449Z,83.83
2023-03-19T10:29:35.748Z,83.61
2023-03-19T10:32:23.116Z,83.01
2023-03-19T10:35:01.374Z,82.59
2023-03-19T10:37:35.241Z,81.50
2023-03-19T10:40:11.667Z,82.04
2023-03-19T10:43:13.280Z,80.76
2023-03-19T10:45:48.008Z,79.51
2023-03-19T10:48:26.950Z,78.73
2023-03-19T10:51:07.336Z,79.42
2023-03-19T10:53:43.132Z,78.76
2023-03-19T10:56:29.791Z,77.63
2023-03-19T10:59:11.718Z,77.28
2023-03-19T11:01:45.402Z,77.21
2023-03-19T11:04:25.881Z,78.32
2023-03-19T11:07:07.949Z,78.52
2023-03-19T11:09:45.425Z,78.29
2023-03-19T11:12:28.256Z,77.55
2023-03-19T11:15:03.978Z,78.15
2023-03-19T11:17:44.009Z,78.52
2023-03-19T11:20:33.509Z,79.16
2023-03-19T11:23:13.410Z,77.97
2023-03-19T11:25:57.533Z,77.80
2023-03-19T11:28:31.111Z,77.15
2023-03-19T11:31:34.094Z,76.57
2023-03-19T11:34:12.595Z,76.90
2023-03-19T11:37:08.989Z,76.47
2023-03-19T11:39:50.656Z,76.74
2023-03-19T11:42:45.187Z,75.51
2023-03-19T11:45:18.799Z,74.89
2023-03-19T11:48:15.632Z,74.27
2023-03-19T11:50:59.704Z,73.86
2023-03-19T11:53:57.483Z,73.57
2023-03-19T11:56:44.304Z,74.37
2023-03-19T11:59:42.186Z,75.24
2023-03-19T12:02:47.784Z,75.38
2023-03-19T12:05:38.874Z,75.53
2023-03-19T12:08:17.680Z,74.84
2023-03-19T12:11:28.640Z,74.09
2023-03-19T12:14:33.086Z,74.11
2023-03-19T12:17:36.196Z,73.76
2023-03-19T12:20:14.011Z,73.70
2023-03-19T12:22:52.221Z,73.54
2023-03-19T12:25:31.513Z,72.84
2023-03-19T12:28:11.336Z,71.61
2023-03-19T12:30:54.061Z,70.93
2023-03-19T12:33:54.412Z,70.56
2023-03-19T12:36:32.379Z,69.86
2023-03-19T12:39:21.170Z,68.29
2023-03-19T12:41:56.332Z,68.05
2023-03-19T12:44:33.630Z,67.27
2023-03-19T12:47:26.876Z,66.84
2023-03-19T12:50:09.634Z,65.32
2023-03-19T12:52:47.294Z,64.89
2023-03-19T12:55:38.813Z,65.71
2023-03-19T12:58:14.435Z,66.30
2023-03-19T13:00:58.726Z,66.37
2023-03-19T13:06:52.318Z,67.97
2023-03-19T13:09:45.823Z,68.34
2023-03-19T13:12:24.617Z,68.23
2023-03-19T13:15:14.191Z,68.00
2023-03-19T13:18:14.435Z,68.20
2023-03-19T13:21:00.113Z,68.34
2023-03-19T13:23:37.463Z,68.13
2023-03-19T13:26:13.836Z,67.63
2023-03-19T13:29:04.287Z,66.56
2023-03-19T13:31:39.162Z,66.83
2023-03-19T13:34:22.366Z,65.75
2023-03-19T13:37:14.363Z,65.63
2023-03-19T13:39:48.493Z,65.94
2023-03-19T13:42:41.837Z,65.66
2023-03-19T13:45:40.806Z,65.48
2023-03-19T13:48:33.935Z,65.22
2023-03-19T13:51:24.353Z,65.09
2023-03-19T13:54:12.883Z,64.76
2023-03-19T13:57:06.068Z,64.75
2023-03-19T13:59:39.568Z,65.34
2023-03-19T14:02:31.588Z,65.38
2023-03-19T14:05:12.167Z,65.55
2023-03-19T14:07:47.325Z,65.47
2023-03-19T14:10:34.840Z,66.35
2023-03-19T14:13:12.979Z,64.93
2023-03-19T14:15:53.455Z,65.35
2023-03-19T14:18:26.994Z,65.81
2023-03-19T14:21:07.139Z,65.60
2023-03-19T14:23:43.015Z,65.59
2023-03-19T14:26:17.129Z,65.85
2023-03-19T14:29:11.505Z,65.34
2023-03-19T14:31:53.866Z,64.78
2023-03-19T14:34:47.939Z,63.81
2023-03-19T14:37:21.574Z,61.37
2023-03-19T14:40:15.063Z,61.89
2023-03-19T14:43:08.060Z,60.54
2023-03-19T14:46:01.197Z,59.55
2023-03-19T14:49:00.330Z,59.78
2023-03-19T14:52:01.045Z,59.04
2023-03-19T14:54:40.178Z,58.05
2023-03-19T14:57:18.872Z,57.17
2023-03-19T14:59:51.173Z,57.49
2023-03-19T15:02:35.202Z,58.59
2023-03-19T15:05:11.314Z,58.88
2023-03-19T15:07:46.625Z,59.42
2023-03-19T15:10:24.741Z,58.90
2023-03-19T15:13:04.591Z,58.74
2023-03-19T15:15:56.592Z,58.87
2023-03-19T15:18:33.074Z,58.78
2023-03-19T15:21:05.738Z,58.91
2023-03-19T15:23:40.105Z,59.19
2023-03-19T15:26:21.207Z,59.61
2023-03-19T15:28:56.215Z,59.46
2023-03-19T15:31:54.007Z,59.17
2023-03-19T15:34:26.187Z,58.97
2023-03-19T15:37:06.440Z,58.80
2023-03-19T15:39:41.405Z,58.55
2023-03-19T15:42:13.129Z,57.90
2023-03-19T15:44:58.719Z,57.63
2023-03-19T15:47:34.346Z,57.38
2023-03-19T15:50:12.449Z,56.59
2023-03-19T15:52:46.236Z,56.80
2023-03-19T15:55:29.149Z,56.65
2023-03-19T15:58:19.584Z,57.06
2023-03-19T16:00:56.497Z,57.06
2023-03-19T16:03:41.548Z,56.56
2023-03-19T16:06:18.638Z,55.70
2023-03-19T16:08:55.434Z,56.57
2023-03-19T16:11:33.952Z,56.52
2023-03-19T16:14:13.614Z,57.18
2023-03-19T16:16:49.901Z,57.77
2023-03-19T16:19:37.446Z,58.01
2023-03-19T16:22:28.804Z,57.91
2023-03-19T16:25:02.281Z,57.98
2023-03-19T16:27:44.378Z,57.70
2023-03-19T16:30:28.417Z,58.03
2023-03-19T16:33:06.364Z,58.33
2023-03-19T16:35:47.498Z,58.79
2023-03-19T16:38:29.105Z,59.07
2023-03-19T16:41:20.965Z,59.50
2023-03-19T16:43:55.643Z,60.10
2023-03-19T16:46:32.950Z,60.40
2023-03-19T16:49:05.081Z,59.97
2023-03-19T16:51:37.658Z,60.55
2023-03-19T16:54:24.905Z,60.50
2023-03-19T16:56:56.899Z,60.75
2023-03-19T16:59:32.109Z,61.05
2023-03-19T17:02:07.648Z,61.32
2023-03-19T17:04:38.369Z,62.01
2023-03-19T17:07:10.563Z,62.28
2023-03-19T17:09:41.612Z,62.89
2023-03-19T17:12:15.513Z,63.06
2023-03-19T17:14:47.197Z,63.25
2023-03-19T17:17:20.536Z,61.71
2023-03-19T17:19:52.186Z,62.46
2023-03-19T17:22:24.529Z,62.27
2023-03-19T17:24:56.728Z,62.80
2023-03-19T17:27:28.548Z,62.36
2023-03-19T17:29:59.176Z,63.17
2023-03-19T17:32:31.877Z,63.37
2023-03-19T17:35:06.932Z,63.90
2023-03-19T17:37:41.149Z,63.92
2023-03-19T17:40:20.467Z,64.58
2023-03-19T17:42:53.163Z,65.04
2023-03-19T17:45:29.833Z,65.41
2023-03-19T17:48:04.369Z,65.66
2023-03-19T17:50:36.213Z,66.13
2023-03-19T17:53:10.466Z,66.79
2023-03-19T17:55:42.008Z,67.20
2023-03-19T17:58:24.431Z,67.07
2023-03-19T18:00:56.611Z,67.17
2023-03-19T18:03:34.834Z,66.94
2023-03-19T18:06:06.908Z,67.26
2023-03-19T18:08:39.501Z,67.13
2023-03-19T18:11:11.706Z,67.22
2023-03-19T18:13:43.556Z,67.13
2023-03-19T18:16:32.268Z,67.56
2023-03-19T18:19:08.139Z,67.29
2023-03-19T18:21:39.060Z,66.89
2023-03-19T18:24:11.275Z,66.09
2023-03-19T18:26:43.884Z,65.85
2023-03-19T18:29:14.952Z,65.95
2023-03-19T18:31:51.238Z,65.99
2023-03-19T18:34:22.918Z,66.12
2023-03-19T18:36:53.371Z,66.14
2023-03-19T18:39:23.973Z,66.42
2023-03-19T18:41:56.058Z,67.01
2023-03-19T18:44:28.675Z,66.95
2023-03-19T18:47:00.492Z,67.79
2023-03-19T18:49:31.338Z,67.76
2023-03-19T18:52:03.923Z,68.27
2023-03-19T18:54:34.760Z,68.04
2023-03-19T18:57:08.839Z,68.37
2023-03-19T18:59:41.111Z,68.90
2023-03-19T19:02:31.195Z,69.30
2023-03-19T19:05:03.232Z,69.32
2023-03-19T19:07:33.902Z,69.29
2023-03-19T19:10:05.416Z,69.95
2023-03-19T19:12:39.676Z,69.92
2023-03-19T19:15:18.860Z,70.53
2023-03-19T19:17:49.813Z,70.16
2023-03-19T19:20:23.347Z,70.31
2023-03-19T19:22:56.199Z,70.54
2023-03-19T19:25:29.421Z,70.38
2023-03-19T19:28:07.495Z,70.30
2023-03-19T19:30:39.725Z,70.22
2023-03-19T19:33:21.850Z,70.21
2023-03-19T19:35:53.714Z,69.96
2023-03-19T19:38:24.312Z,70.35
2023-03-19T19:40:58.387Z,70.73
2023-03-19T19:43:32.768Z,70.75
2023-03-19T19:46:03.514Z,70.55
2023-03-19T19:48:34.186Z,69.91
2023-03-19T19:51:04.882Z,70.35
2023-03-19T19:53:36.492Z,70.24
2023-03-19T19:56:18.426Z,69.44
2023-03-19T19:58:53.121Z,69.92
2023-03-19T20:01:26.393Z,69.85
2023-03-19T20:04:07.870Z,69.48
2023-03-19T20:06:38.516Z,69.78
2023-03-19T20:09:10.812Z,68.92
2023-03-19T20:11:44.382Z,69.78
2023-03-19T20:14:15.353Z,69.68
2023-03-19T20:16:47.257Z,69.74
2023-03-19T20:19:20.768Z,69.90
2023-03-19T20:21:51.781Z,69.72
2023-03-19T20:24:22.391Z,69.87
2023-03-19T20:26:54.277Z,70.62
2023-03-19T20:29:24.868Z,69.72
2023-03-19T20:31:58.310Z,69.92
2023-03-19T20:34:39.126Z,70.27
2023-03-19T20:37:03.350Z,70.34
2023-03-19T20:39:37.124Z,70.65
2023-03-19T20:42:13.715Z,70.99
2023-03-19T20:44:45.655Z,71.27
2023-03-19T20:47:21.591Z,71.45
2023-03-19T20:49:53.456Z,71.21
2023-03-19T20:52:26.128Z,71.38
2023-03-19T20:54:58.455Z,71.49
2023-03-19T20:57:30.917Z,71.71
2023-03-19T21:00:05.997Z,71.63
2023-03-19T21:02:38.321Z,71.40
2023-03-19T21:05:13.328Z,72.27
2023-03-19T21:07:48.744Z,72.71
2023-03-19T21:10:26.472Z,72.33
2023-03-19T21:12:58.303Z,72.36
2023-03-19T21:15:31.903Z,72.55
2023-03-19T21:18:05.406Z,72.18
2023-03-19T21:20:44.569Z,72.59
2023-03-19T21:23:37.822Z,72.29
2023-03-19T21:26:22.156Z,71.63
2023-03-19T21:29:04.140Z,72.19
2023-03-19T21:31:34.849Z,72.20
2023-03-19T21:34:07.178Z,72.37
2023-03-19T21:36:42.085Z,72.57
2023-03-19T21:39:17.139Z,73.03
2023-03-19T21:41:48.401Z,72.63
2023-03-19T21:44:26.507Z,72.96
2023-03-19T21:46:57.445Z,72.17
2023-03-19T21:49:30.757Z,72.78
2023-03-19T21:52:04.888Z,72.54
2023-03-19T21:54:35.567Z,72.66
2023-03-19T21:57:06.753Z,72.80
2023-03-19T21:59:39.164Z,72.74
2023-03-19T22:02:29.547Z,72.76
2023-03-19T22:05:00.180Z,72.73
2023-03-19T22:07:30.665Z,73.09
2023-03-19T22:10:05.381Z,73.82
2023-03-19T22:12:39.379Z,73.81
2023-03-19T22:15:25.070Z,74.21
2023-03-19T22:17:57.349Z,74.36
2023-03-19T22:20:30.911Z,74.68
2023-03-19T22:23:06.685Z,74.96
2023-03-19T22:25:42.299Z,74.93
2023-03-19T22:28:34.842Z,74.84
2023-03-19T22:31:07.691Z,75.15
2023-03-19T22:33:43.727Z,75.06
2023-03-19T22:36:16.570Z,74.97
2023-03-19T22:38:52.883Z,74.38
2023-03-19T22:41:38.354Z,73.71
2023-03-19T22:44:18.218Z,74.11
2023-03-19T22:46:53.072Z,74.03
2023-03-19T22:49:25.626Z,74.58
2023-03-19T22:51:58.767Z,74.69
2023-03-19T22:54:35.712Z,74.66
2023-03-19T22:57:06.267Z,74.99
2023-03-19T22:59:37.676Z,74.92
2023-03-19T23:02:21.557Z,74.37
2023-03-19T23:04:59.100Z,74.61
2023-03-19T23:07:39.690Z,75.13
2023-03-19T23:10:15.585Z,74.74
2023-03-19T23:12:47.878Z,74.63
2023-03-19T23:15:19.808Z,75.12
2023-03-19T23:17:54.132Z,75.32
2023-03-19T23:20:27.663Z,74.76
2023-03-19T23:22:58.414Z,75.35
2023-03-19T23:25:31.562Z,75.37
2023-03-19T23:28:06.060Z,75.20
2023-03-19T23:30:39.556Z,75.44
2023-03-19T23:33:13.334Z,75.61
2023-03-19T23:35:44.864Z,75.71
2023-03-19T23:38:25.714Z,76.11
2023-03-19T23:40:56.786Z,76.08
2023-03-19T23:43:37.042Z,76.23
2023-03-19T23:46:07.913Z,76.30
2023-03-19T23:48:42.525Z,76.62
2023-03-19T23:51:15.380Z,76.77
2023-03-19T23:53:47.825Z,77.01
2023-03-19T23:56:28.192Z,76.86
2023-03-19T23:59:09.105Z,77.05
